Huvudsida
METAR-TAF:

METAR-TAF

Flygplatser :

Kulob, Tadzjikistan

latitud: 37-59-18N, longitud: 069-48-18E, höjd: 699 m

Aktuellt väderrapport

Denna rapport gjordes för 34 minuter sedan, klockan 07:30 UTC
Vind 6 kt från syd/sydväst, varierande mellan syd/sydost och väst/sydväst
Temperatur 23°C
Fuktighet 23%
Tryck 1020 hPa
Sikt 10 km eller mer

METAR: UTDK 230730Z 20003MPS 160V240 9999 NSC 23/01 Q1020 R01/09//70 RMK QFE707/0943

Tid: 13:04 (08:04 UTC)

Väderprognos

Denna rapport gjordes för 2 timmar och 4 minuter sedan, klockan 06:00 UTC
Prognos gäller från 23 kl. 07 UTC till 23 kl. 16 UTC
Vind 4 kt varierande vindriktning
Sikt: 6000 m
Få moln på en höjd av 6600 ft
Spridda moln på en höjd av 13000 ft
Temporärt
från 23 kl. 07 UTC till 23 kl. 16 UTC
Vind 10 kt från syd/sydväst

TAF: UTDK 230600Z 2307/2316 VRB02MPS 6000 FEW066 SCT130 TEMPO 2307/2316 21005MPS

Aktuella väderrapporter och prognoser från 4000 flygplatser (METAR- och TAF-rapporter).

De tillgängliga stationerna syns som gula och röda prickar på kartan.

För musen över prickarna för att se namnen på stationerna.

Klicka sedan för att få väderrapporter och prognoser.

För att ändra kartan: Klicka på de gröna knapparna med ett svart kors på för att zooma in; den gröna knappen med ett streck på för att zooma ut; eller på de gröna pilarna för angränsande kartor.


METAR-TAF: